createdAt,value
2018-11-23T00:00:29.722Z,0
2018-11-23T00:01:37.801Z,0
2018-11-23T00:02:45.845Z,0
2018-11-23T00:03:53.881Z,0
2018-11-23T00:05:01.956Z,0
2018-11-23T00:06:10.016Z,0
2018-11-23T00:07:18.059Z,0
2018-11-23T00:08:26.111Z,0
2018-11-23T00:09:34.158Z,0
2018-11-23T00:10:42.233Z,0
2018-11-23T00:11:50.283Z,0
2018-11-23T00:12:58.369Z,0
2018-11-23T00:14:06.399Z,0
2018-11-23T00:15:14.482Z,0
2018-11-23T00:16:22.498Z,0
2018-11-23T00:17:30.561Z,0
2018-11-23T00:18:38.614Z,0
2018-11-23T00:19:46.664Z,0
2018-11-23T00:20:54.736Z,0
2018-11-23T00:22:02.786Z,0
2018-11-23T00:23:10.846Z,0
2018-11-23T00:24:18.903Z,0
2018-11-23T00:25:26.936Z,0
2018-11-23T00:26:35.000Z,0
2018-11-23T00:27:43.105Z,0
2018-11-23T00:28:51.102Z,0
2018-11-23T00:29:59.169Z,0
2018-11-23T00:31:07.214Z,0
2018-11-23T00:32:15.286Z,0
2018-11-23T00:33:23.314Z,0
2018-11-23T00:34:31.395Z,0
2018-11-23T00:35:39.444Z,0
2018-11-23T00:36:47.511Z,0
2018-11-23T00:37:55.552Z,0
2018-11-23T00:39:03.579Z,0
2018-11-23T00:40:11.673Z,0
2018-11-23T00:41:19.744Z,0
2018-11-23T00:42:27.780Z,0
2018-11-23T00:43:35.837Z,0
2018-11-23T00:44:43.869Z,0
2018-11-23T00:45:51.963Z,0
2018-11-23T00:46:59.990Z,0
2018-11-23T00:48:08.055Z,0
2018-11-23T00:49:16.111Z,0
2018-11-23T00:50:24.140Z,0
2018-11-23T00:51:32.239Z,0
2018-11-23T00:52:40.283Z,0
2018-11-23T00:53:48.330Z,0
2018-11-23T00:54:56.413Z,0
2018-11-23T00:56:04.440Z,0
2018-11-23T00:57:12.508Z,0
2018-11-23T00:58:20.562Z,0
2018-11-23T00:59:28.616Z,0
2018-11-23T01:00:36.662Z,0
2018-11-23T01:01:44.728Z,0
2018-11-23T01:02:52.770Z,0
2018-11-23T01:04:00.846Z,0
2018-11-23T01:05:08.895Z,0
2018-11-23T01:06:16.943Z,0
2018-11-23T01:07:24.998Z,0
2018-11-23T01:08:33.054Z,0
2018-11-23T01:09:41.111Z,0
2018-11-23T01:10:49.175Z,0
2018-11-23T01:11:57.228Z,0
2018-11-23T01:13:05.285Z,0
2018-11-23T01:14:13.335Z,0
2018-11-23T01:15:21.392Z,0
2018-11-23T01:16:29.450Z,0
2018-11-23T01:17:37.495Z,0
2018-11-23T01:18:45.560Z,0
2018-11-23T01:19:53.608Z,0
2018-11-23T01:21:01.681Z,0
2018-11-23T01:22:09.718Z,0
2018-11-23T01:23:17.782Z,0
2018-11-23T01:24:25.829Z,0
2018-11-23T01:25:33.869Z,0
2018-11-23T01:26:41.957Z,0
2018-11-23T01:27:50.010Z,0
2018-11-23T01:28:58.049Z,0
2018-11-23T01:30:06.102Z,0
2018-11-23T01:31:14.155Z,0
2018-11-23T01:32:22.219Z,0
2018-11-23T01:33:30.278Z,0
2018-11-23T01:34:38.335Z,0
2018-11-23T01:35:46.400Z,0
2018-11-23T01:36:54.427Z,0
2018-11-23T01:38:02.490Z,0
2018-11-23T01:39:10.566Z,0
2018-11-23T01:40:18.608Z,0
2018-11-23T01:41:26.656Z,0
2018-11-23T01:42:34.716Z,0
2018-11-23T01:43:42.779Z,0
2018-11-23T01:44:50.829Z,0
2018-11-23T01:45:58.900Z,0
2018-11-23T01:47:06.941Z,0
2018-11-23T01:48:14.987Z,0
2018-11-23T01:49:23.058Z,0
2018-11-23T01:50:31.113Z,0
2018-11-23T01:51:39.178Z,0
2018-11-23T01:52:47.211Z,0
2018-11-23T01:53:55.269Z,0
2018-11-23T01:55:03.310Z,0
2018-11-23T01:56:11.392Z,0
2018-11-23T01:57:19.449Z,0
2018-11-23T01:58:27.500Z,0
2018-11-23T01:59:35.556Z,0
2018-11-23T02:00:43.606Z,0
2018-11-23T02:01:51.668Z,0
2018-11-23T02:02:59.742Z,0
2018-11-23T02:04:07.773Z,0
2018-11-23T02:05:15.845Z,0
2018-11-23T02:06:23.855Z,0
2018-11-23T02:07:31.935Z,0
2018-11-23T02:08:39.987Z,0
2018-11-23T02:09:48.051Z,0
2018-11-23T02:10:56.115Z,0
2018-11-23T02:12:04.135Z,0
2018-11-23T02:13:12.206Z,0
2018-11-23T02:14:20.266Z,0
2018-11-23T02:15:28.349Z,0
2018-11-23T02:16:36.386Z,0
2018-11-23T02:17:44.446Z,0
2018-11-23T02:18:52.502Z,0
2018-11-23T02:20:00.559Z,0
2018-11-23T02:21:08.612Z,0
2018-11-23T02:22:16.665Z,0
2018-11-23T02:23:24.727Z,0
2018-11-23T02:24:32.776Z,0
2018-11-23T02:25:40.841Z,0
2018-11-23T02:26:48.898Z,0
2018-11-23T02:27:56.946Z,0
2018-11-23T02:29:05.008Z,0
2018-11-23T02:30:13.048Z,0
2018-11-23T02:31:21.107Z,0
2018-11-23T02:32:29.259Z,0
2018-11-23T02:33:37.246Z,0
2018-11-23T02:34:51.532Z,0
2018-11-23T02:35:53.319Z,0
2018-11-23T02:37:01.388Z,0
2018-11-23T02:38:09.453Z,0
2018-11-23T02:39:17.508Z,0
2018-11-23T02:40:25.561Z,0
2018-11-23T02:41:33.596Z,0
2018-11-23T02:42:41.660Z,0
2018-11-23T02:43:49.736Z,0
2018-11-23T02:44:57.790Z,0
2018-11-23T02:46:05.842Z,0
2018-11-23T02:47:13.860Z,0
2018-11-23T02:48:21.950Z,0
2018-11-23T02:49:29.986Z,0
2018-11-23T02:50:38.061Z,0
2018-11-23T02:51:46.113Z,0
2018-11-23T02:52:54.154Z,0
2018-11-23T02:54:02.236Z,0
2018-11-23T02:55:10.279Z,0
2018-11-23T02:56:18.351Z,0
2018-11-23T02:57:26.401Z,0
2018-11-23T02:58:34.458Z,0
2018-11-23T02:59:42.514Z,0
2018-11-23T03:00:50.567Z,0
2018-11-23T03:01:58.626Z,0
2018-11-23T03:03:06.682Z,0
2018-11-23T03:04:14.742Z,0
2018-11-23T03:05:22.781Z,0
2018-11-23T03:06:30.834Z,0
2018-11-23T03:07:38.910Z,0
2018-11-23T03:08:46.980Z,0
2018-11-23T03:09:55.025Z,0
2018-11-23T03:11:03.071Z,0
2018-11-23T03:12:11.131Z,0
2018-11-23T03:13:19.185Z,0
2018-11-23T03:14:27.252Z,0
2018-11-23T03:15:35.297Z,0
2018-11-23T03:16:43.341Z,0
2018-11-23T03:17:51.418Z,0
2018-11-23T03:18:59.461Z,0
2018-11-23T03:20:07.543Z,0
2018-11-23T03:21:15.587Z,0
2018-11-23T03:22:23.645Z,0
2018-11-23T03:23:31.698Z,0
2018-11-23T03:24:39.762Z,0
2018-11-23T03:25:47.811Z,0
2018-11-23T03:26:55.853Z,0
2018-11-23T03:28:03.905Z,0
2018-11-23T03:29:11.999Z,0
2018-11-23T03:30:20.040Z,0
2018-11-23T03:31:28.084Z,0
2018-11-23T03:32:36.151Z,0
2018-11-23T03:33:44.215Z,0
2018-11-23T03:34:52.285Z,0
2018-11-23T03:36:00.318Z,0
2018-11-23T03:37:08.381Z,0
2018-11-23T03:38:16.458Z,0
2018-11-23T03:39:24.496Z,0
2018-11-23T03:40:32.562Z,0
2018-11-23T03:41:40.607Z,0
2018-11-23T03:42:48.651Z,0
2018-11-23T03:43:56.702Z,0
2018-11-23T03:45:04.786Z,0
2018-11-23T03:46:12.832Z,0
2018-11-23T03:47:20.891Z,0
2018-11-23T03:48:28.936Z,0
2018-11-23T03:49:37.006Z,0
2018-11-23T03:50:45.068Z,0
2018-11-23T03:51:53.129Z,0
2018-11-23T03:53:01.180Z,0
2018-11-23T03:54:09.234Z,0
2018-11-23T03:55:17.280Z,0
2018-11-23T03:56:25.335Z,0
2018-11-23T03:57:33.384Z,0
2018-11-23T03:58:41.467Z,0
2018-11-23T03:59:49.509Z,0
2018-11-23T04:00:57.571Z,0
2018-11-23T04:02:05.618Z,0
2018-11-23T04:03:13.671Z,0
2018-11-23T04:04:21.744Z,0
2018-11-23T04:05:29.798Z,0
2018-11-23T04:06:37.848Z,0
2018-11-23T04:07:45.913Z,0
2018-11-23T04:08:53.937Z,0
2018-11-23T04:10:02.017Z,0
2018-11-23T04:11:10.081Z,0
2018-11-23T04:12:18.133Z,0
2018-11-23T04:13:26.228Z,0
2018-11-23T04:14:34.230Z,0
2018-11-23T04:15:42.307Z,0
2018-11-23T04:16:50.363Z,0
2018-11-23T04:17:58.403Z,0
2018-11-23T04:19:06.462Z,0
2018-11-23T04:20:14.527Z,0
2018-11-23T04:21:22.580Z,0
2018-11-23T04:22:30.658Z,0
2018-11-23T04:23:38.703Z,0
2018-11-23T04:24:46.750Z,0
2018-11-23T04:25:54.801Z,0
2018-11-23T04:27:02.873Z,0
2018-11-23T04:28:10.910Z,0
2018-11-23T04:29:18.981Z,0
2018-11-23T04:30:27.038Z,0
2018-11-23T04:31:35.089Z,0
2018-11-23T04:32:43.160Z,0
2018-11-23T04:33:51.213Z,0
2018-11-23T04:34:59.261Z,0
2018-11-23T04:36:07.333Z,0
2018-11-23T04:37:15.393Z,0
2018-11-23T04:38:23.423Z,0
2018-11-23T04:39:31.486Z,0
2018-11-23T04:40:39.541Z,0
2018-11-23T04:41:47.601Z,0
2018-11-23T04:42:55.661Z,0
2018-11-23T04:44:03.689Z,0
2018-11-23T04:45:11.775Z,0
2018-11-23T04:46:19.832Z,0
2018-11-23T04:47:27.887Z,0
2018-11-23T04:48:35.946Z,0
2018-11-23T04:49:43.962Z,0
2018-11-23T04:50:52.057Z,0
2018-11-23T04:52:00.118Z,0
2018-11-23T04:53:08.172Z,0
2018-11-23T04:54:16.209Z,0
2018-11-23T04:55:24.260Z,0
2018-11-23T04:56:32.339Z,0
2018-11-23T04:57:40.402Z,0
2018-11-23T04:58:48.459Z,0
2018-11-23T04:59:56.507Z,0
2018-11-23T05:01:04.554Z,0
2018-11-23T05:02:12.625Z,0
2018-11-23T05:03:20.659Z,0
2018-11-23T05:04:28.735Z,0
2018-11-23T05:05:36.792Z,0
2018-11-23T05:06:44.844Z,0
2018-11-23T05:07:52.889Z,0
2018-11-23T05:09:00.944Z,0
2018-11-23T05:10:09.003Z,0
2018-11-23T05:11:17.052Z,0
2018-11-23T05:12:25.101Z,0
2018-11-23T05:13:33.161Z,0
2018-11-23T05:14:41.450Z,0
2018-11-23T05:15:49.279Z,0
2018-11-23T05:16:57.405Z,0
2018-11-23T05:18:05.396Z,0
2018-11-23T05:19:13.436Z,0
2018-11-23T05:20:21.557Z,0
2018-11-23T05:21:29.572Z,0
2018-11-23T05:22:37.628Z,0
2018-11-23T05:23:45.677Z,0
2018-11-23T05:24:53.699Z,0
2018-11-23T05:26:01.779Z,0
2018-11-23T05:27:09.847Z,0
2018-11-23T05:28:17.908Z,0
2018-11-23T05:29:25.958Z,0
2018-11-23T05:30:33.983Z,0
2018-11-23T05:31:42.060Z,0
2018-11-23T05:32:50.112Z,0
2018-11-23T05:33:58.174Z,0
2018-11-23T05:35:06.253Z,0
2018-11-23T05:36:14.304Z,0
2018-11-23T05:37:22.348Z,0
2018-11-23T05:38:30.415Z,0
2018-11-23T05:39:38.461Z,0
2018-11-23T05:40:46.501Z,0
2018-11-23T05:41:54.557Z,0
2018-11-23T05:43:04.349Z,0
2018-11-23T05:44:10.664Z,0
2018-11-23T05:45:18.723Z,0
2018-11-23T05:46:26.776Z,0
2018-11-23T05:47:34.830Z,0
2018-11-23T05:48:42.883Z,0
2018-11-23T05:49:50.945Z,0
2018-11-23T05:50:58.997Z,0
2018-11-23T05:52:07.068Z,0
2018-11-23T05:53:15.112Z,0
2018-11-23T05:54:23.916Z,0
2018-11-23T05:55:31.248Z,0
2018-11-23T05:56:39.271Z,0
2018-11-23T05:57:47.347Z,0
2018-11-23T05:58:55.409Z,0
2018-11-23T06:00:03.430Z,0
2018-11-23T06:01:11.508Z,0
2018-11-23T06:02:19.561Z,0
2018-11-23T06:03:27.638Z,0
2018-11-23T06:04:35.680Z,0
2018-11-23T06:05:43.706Z,0
2018-11-23T06:06:51.792Z,0
2018-11-23T06:07:59.837Z,0
2018-11-23T06:09:07.888Z,4
2018-11-23T06:10:15.941Z,0
2018-11-23T06:11:23.982Z,4
2018-11-23T06:12:32.079Z,4
2018-11-23T06:13:40.115Z,4
2018-11-23T06:14:48.165Z,4
2018-11-23T06:15:56.229Z,8
2018-11-23T06:17:04.266Z,8
2018-11-23T06:18:12.335Z,8
2018-11-23T06:19:20.396Z,12
2018-11-23T06:20:28.439Z,12
2018-11-23T06:21:36.519Z,16
2018-11-23T06:22:44.563Z,16
2018-11-23T06:23:52.637Z,24
2018-11-23T06:25:00.686Z,28
2018-11-23T06:26:08.734Z,32
2018-11-23T06:27:16.785Z,36
2018-11-23T06:28:24.823Z,48
2018-11-23T06:29:32.930Z,56
2018-11-23T06:30:40.943Z,64
2018-11-23T06:31:49.021Z,76
2018-11-23T06:32:57.055Z,84
2018-11-23T06:34:05.118Z,96
2018-11-23T06:35:13.176Z,112
2018-11-23T06:36:21.235Z,124
2018-11-23T06:37:29.285Z,140
2018-11-23T06:38:37.340Z,160
2018-11-23T06:39:45.403Z,184
2018-11-23T06:40:53.443Z,204
2018-11-23T06:42:01.510Z,228
2018-11-23T06:43:09.571Z,248
2018-11-23T06:44:17.612Z,276
2018-11-23T06:45:25.682Z,304
2018-11-23T06:46:33.713Z,332
2018-11-23T06:47:41.792Z,364
2018-11-23T06:48:49.841Z,396
2018-11-23T06:49:57.898Z,424
2018-11-23T06:51:05.979Z,444
2018-11-23T06:52:13.993Z,468
2018-11-23T06:53:22.067Z,496
2018-11-23T06:54:30.130Z,520
2018-11-23T06:55:38.173Z,544
2018-11-23T06:56:46.236Z,576
2018-11-23T06:57:54.266Z,588
2018-11-23T06:59:02.340Z,600
2018-11-23T07:00:10.402Z,620
2018-11-23T07:01:18.461Z,640
2018-11-23T07:02:26.511Z,648
2018-11-23T07:03:34.568Z,672
2018-11-23T07:04:42.624Z,700
2018-11-23T07:05:50.681Z,760
2018-11-23T07:06:58.735Z,776
2018-11-23T07:08:06.801Z,860
2018-11-23T07:09:14.856Z,924
2018-11-23T07:10:22.896Z,864
2018-11-23T07:11:30.961Z,916
2018-11-23T07:12:39.018Z,940
2018-11-23T07:13:47.082Z,948
2018-11-23T07:14:55.122Z,972
2018-11-23T07:16:03.172Z,1008
2018-11-23T07:17:11.230Z,1088
2018-11-23T07:18:19.303Z,1216
2018-11-23T07:19:27.360Z,1388
2018-11-23T07:20:35.409Z,1496
2018-11-23T07:21:43.439Z,1460
2018-11-23T07:22:51.525Z,1660
2018-11-23T07:23:59.580Z,1704
2018-11-23T07:25:07.637Z,1668
2018-11-23T07:26:15.694Z,1500
2018-11-23T07:27:23.733Z,1872
2018-11-23T07:28:31.800Z,1920
2018-11-23T07:29:39.844Z,2008
2018-11-23T07:30:47.925Z,2012
2018-11-23T07:31:55.968Z,2080
2018-11-23T07:33:04.012Z,2256
2018-11-23T07:34:12.081Z,2184
2018-11-23T07:35:20.137Z,2212
2018-11-23T07:36:28.193Z,2576
2018-11-23T07:37:36.252Z,2572
2018-11-23T07:38:44.308Z,2612
2018-11-23T07:39:52.358Z,2624
2018-11-23T07:41:00.425Z,2508
2018-11-23T07:42:08.483Z,2544
2018-11-23T07:43:16.529Z,2568
2018-11-23T07:44:24.606Z,2556
2018-11-23T07:45:32.737Z,2568
2018-11-23T07:46:40.706Z,2624
2018-11-23T07:47:48.755Z,2592
2018-11-23T07:48:56.808Z,2612
2018-11-23T07:50:04.872Z,2720
2018-11-23T07:51:12.929Z,2792
2018-11-23T07:52:20.974Z,2804
2018-11-23T07:53:29.025Z,2736
2018-11-23T07:54:37.205Z,2780
2018-11-23T07:55:45.255Z,2740
2018-11-23T07:56:53.280Z,2828
2018-11-23T07:58:01.272Z,2860
2018-11-23T07:59:09.415Z,2796
2018-11-23T08:00:17.382Z,2848
2018-11-23T08:01:25.495Z,2880
2018-11-23T08:02:33.553Z,3048
2018-11-23T08:03:41.597Z,3116
2018-11-23T08:04:49.650Z,3256
2018-11-23T08:05:57.666Z,3256
2018-11-23T08:07:05.794Z,3288
2018-11-23T08:08:13.857Z,3368
2018-11-23T08:09:21.923Z,3408
2018-11-23T08:10:29.992Z,3412
2018-11-23T08:11:38.073Z,3364
2018-11-23T08:12:46.001Z,3256
2018-11-23T08:13:54.176Z,3148
2018-11-23T08:15:02.218Z,3136
2018-11-23T08:16:10.274Z,3092
2018-11-23T08:17:18.259Z,3200
2018-11-23T08:18:26.407Z,3316
2018-11-23T08:19:34.465Z,3336
2018-11-23T08:20:42.499Z,3288
2018-11-23T08:21:50.481Z,3168
2018-11-23T08:22:58.606Z,3116
2018-11-23T08:24:06.591Z,3228
2018-11-23T08:25:14.711Z,3328
2018-11-23T08:26:22.769Z,3276
2018-11-23T08:27:30.768Z,2988
2018-11-23T08:28:38.906Z,3036
2018-11-23T08:29:46.870Z,2744
2018-11-23T08:30:55.011Z,2316
2018-11-23T08:32:02.995Z,2696
2018-11-23T08:33:11.150Z,2828
2018-11-23T08:34:19.205Z,3032
2018-11-23T08:35:27.166Z,3456
2018-11-23T08:36:35.313Z,3588
2018-11-23T08:37:43.364Z,3416
2018-11-23T08:38:51.418Z,3660
2018-11-23T08:39:59.427Z,3488
2018-11-23T08:41:07.547Z,3564
2018-11-23T08:42:15.596Z,3872
2018-11-23T08:43:23.553Z,4092
2018-11-23T08:44:31.720Z,4204
2018-11-23T08:45:39.743Z,4300
2018-11-23T08:46:47.856Z,4412
2018-11-23T08:47:55.805Z,4492
2018-11-23T08:49:03.839Z,4336
2018-11-23T08:50:12.030Z,4420
2018-11-23T08:51:20.036Z,4516
2018-11-23T08:52:28.137Z,4548
2018-11-23T08:53:36.163Z,4472
2018-11-23T08:54:44.229Z,4316
2018-11-23T08:55:52.299Z,4508
2018-11-23T08:57:00.362Z,4676
2018-11-23T08:58:08.406Z,4808
2018-11-23T08:59:16.444Z,5156
2018-11-23T09:00:24.521Z,5512
2018-11-23T09:01:32.569Z,5244
2018-11-23T09:02:40.580Z,5376
2018-11-23T09:03:48.724Z,5620
2018-11-23T09:04:56.674Z,5672
2018-11-23T09:06:04.832Z,5804
2018-11-23T09:07:12.805Z,5928
2018-11-23T09:08:20.850Z,5676
2018-11-23T09:09:28.976Z,5792
2018-11-23T09:10:37.058Z,6152
2018-11-23T09:11:45.122Z,6240
2018-11-23T09:12:53.173Z,5824
2018-11-23T09:14:01.136Z,6280
2018-11-23T09:15:09.270Z,6200
2018-11-23T09:16:17.355Z,6228
2018-11-23T09:17:25.417Z,6176
2018-11-23T09:18:33.581Z,5892
2018-11-23T09:19:41.440Z,5980
2018-11-23T09:20:49.561Z,6328
2018-11-23T09:21:57.658Z,6472
2018-11-23T09:23:05.616Z,6500
2018-11-23T09:24:13.753Z,6048
2018-11-23T09:25:21.835Z,6076
2018-11-23T09:26:29.784Z,6128
2018-11-23T09:27:37.939Z,6236
2018-11-23T09:28:45.966Z,6192
2018-11-23T09:29:54.068Z,5884
2018-11-23T09:31:02.034Z,6448
2018-11-23T09:32:10.202Z,6004
2018-11-23T09:33:18.220Z,6140
2018-11-23T09:34:26.277Z,6108
2018-11-23T09:35:34.352Z,5936
2018-11-23T09:36:42.333Z,6308
2018-11-23T09:37:50.493Z,6268
2018-11-23T09:38:58.529Z,6036
2018-11-23T09:40:06.598Z,6132
2018-11-23T09:41:14.577Z,5824
2018-11-23T09:42:22.756Z,6000
2018-11-23T09:43:30.707Z,5976
2018-11-23T09:44:38.827Z,5732
2018-11-23T09:45:46.908Z,6144
2018-11-23T09:46:54.917Z,5708
2018-11-23T09:48:03.035Z,5304
2018-11-23T09:49:11.052Z,5336
2018-11-23T09:50:19.137Z,4880
2018-11-23T09:51:27.108Z,5224
2018-11-23T09:52:35.256Z,5084
2018-11-23T09:53:43.223Z,5052
2018-11-23T09:54:51.372Z,4824
2018-11-23T09:55:59.344Z,4608
2018-11-23T09:57:07.512Z,4732
2018-11-23T09:58:15.552Z,4312
2018-11-23T09:59:23.617Z,4896
2018-11-23T10:00:31.615Z,4380
2018-11-23T10:01:39.712Z,4812
2018-11-23T10:02:47.788Z,4644
2018-11-23T10:03:55.857Z,4164
2018-11-23T10:05:03.854Z,4156
2018-11-23T10:06:11.977Z,3812
2018-11-23T10:07:20.026Z,3756
2018-11-23T10:08:28.044Z,3568
2018-11-23T10:09:36.125Z,3264
2018-11-23T10:10:44.186Z,2940
2018-11-23T10:11:52.162Z,2848
2018-11-23T10:13:00.237Z,2812
2018-11-23T10:14:08.363Z,2828
2018-11-23T10:15:16.345Z,2828
2018-11-23T10:16:24.446Z,2784
2018-11-23T10:17:32.573Z,2792
2018-11-23T10:18:40.622Z,2724
2018-11-23T10:19:48.674Z,2684
2018-11-23T10:20:56.764Z,2756
2018-11-23T10:22:04.753Z,2308
2018-11-23T10:23:12.862Z,2316
2018-11-23T10:24:20.857Z,2464
2018-11-23T10:25:28.876Z,2600
2018-11-23T10:26:37.004Z,2652
2018-11-23T10:27:45.099Z,2520
2018-11-23T10:28:53.049Z,2436
2018-11-23T10:30:01.351Z,2460
2018-11-23T10:31:09.169Z,2308
2018-11-23T10:32:17.331Z,2344
2018-11-23T10:33:28.271Z,2392
2018-11-23T10:34:33.450Z,2500
2018-11-23T10:35:41.524Z,2652
2018-11-23T10:36:49.814Z,2760
2018-11-23T10:37:57.536Z,2880
2018-11-23T10:39:05.681Z,3016
2018-11-23T10:40:13.677Z,3224
2018-11-23T10:41:21.780Z,3304
2018-11-23T10:42:29.847Z,3320
2018-11-23T10:43:37.908Z,3252
2018-11-23T10:44:45.965Z,3280
2018-11-23T10:45:54.019Z,3376
2018-11-23T10:47:02.174Z,3532
2018-11-23T10:48:10.253Z,3748
2018-11-23T10:49:18.190Z,3964
2018-11-23T10:50:26.163Z,4080
2018-11-23T10:51:34.318Z,4092
2018-11-23T10:52:42.387Z,4160
2018-11-23T10:53:50.348Z,4392
2018-11-23T10:54:58.503Z,4544
2018-11-23T10:56:06.547Z,4604
2018-11-23T10:57:14.534Z,4628
2018-11-23T10:58:22.657Z,4708
2018-11-23T10:59:30.699Z,4856
2018-11-23T11:00:38.793Z,4980
2018-11-23T11:01:46.860Z,5196
2018-11-23T11:02:54.915Z,5452
2018-11-23T11:04:02.950Z,5704
2018-11-23T11:05:11.057Z,5912
2018-11-23T11:06:18.997Z,6148
2018-11-23T11:07:27.133Z,6364
2018-11-23T11:08:35.114Z,6512
2018-11-23T11:09:43.268Z,6588
2018-11-23T11:10:51.259Z,6608
2018-11-23T11:11:59.406Z,6584
2018-11-23T11:13:07.415Z,6528
2018-11-23T11:14:15.498Z,6452
2018-11-23T11:15:23.445Z,6536
2018-11-23T11:16:31.647Z,6704
2018-11-23T11:17:39.585Z,6872
2018-11-23T11:18:47.747Z,7024
2018-11-23T11:19:55.700Z,7276
2018-11-23T11:21:03.804Z,7540
2018-11-23T11:22:11.836Z,7492
2018-11-23T11:23:19.986Z,7244
2018-11-23T11:24:27.950Z,7028
2018-11-23T11:25:36.013Z,7168
2018-11-23T11:26:44.042Z,7444
2018-11-23T11:27:52.119Z,7664
2018-11-23T11:29:00.183Z,7712
2018-11-23T11:30:08.255Z,7568
2018-11-23T11:31:16.304Z,7464
2018-11-23T11:32:24.367Z,7252
2018-11-23T11:33:32.439Z,7212
2018-11-23T11:34:40.474Z,7272
2018-11-23T11:35:48.535Z,7408
2018-11-23T11:36:56.621Z,7428
2018-11-23T11:38:04.665Z,7452
2018-11-23T11:39:12.738Z,7524
2018-11-23T11:40:20.789Z,7636
2018-11-23T11:41:28.847Z,7688
2018-11-23T11:42:36.928Z,7588
2018-11-23T11:43:44.972Z,7396
2018-11-23T11:44:53.036Z,7252
2018-11-23T11:46:01.098Z,7152
2018-11-23T11:47:09.158Z,7004
2018-11-23T11:48:17.222Z,6784
2018-11-23T11:49:25.276Z,6556
2018-11-23T11:50:33.314Z,6368
2018-11-23T11:51:41.400Z,6296
2018-11-23T11:52:49.472Z,6388
2018-11-23T11:53:57.527Z,6504
2018-11-23T11:55:05.595Z,6528
2018-11-23T11:56:13.623Z,6480
2018-11-23T11:57:21.713Z,6368
2018-11-23T11:58:29.770Z,6220
2018-11-23T11:59:37.836Z,6076
2018-11-23T12:00:45.894Z,5956
2018-11-23T12:01:54.029Z,5876
2018-11-23T12:03:02.042Z,5864
2018-11-23T12:04:10.159Z,5984
2018-11-23T12:05:18.237Z,6244
2018-11-23T12:06:26.293Z,6516
2018-11-23T12:07:34.228Z,6692
2018-11-23T12:08:42.404Z,6680
2018-11-23T12:09:50.432Z,6512
2018-11-23T12:10:58.431Z,6328
2018-11-23T12:12:06.588Z,6256
2018-11-23T12:13:14.553Z,6256
2018-11-23T12:14:22.674Z,6220
2018-11-23T12:15:30.753Z,6132
2018-11-23T12:16:38.851Z,6060
2018-11-23T12:17:46.859Z,6056
2018-11-23T12:18:54.960Z,6088
2018-11-23T12:20:02.993Z,6112
2018-11-23T12:21:11.064Z,6088
2018-11-23T12:22:19.134Z,5968
2018-11-23T12:23:27.113Z,5784
2018-11-23T12:24:35.279Z,5656
2018-11-23T12:25:43.324Z,5632
2018-11-23T12:26:51.375Z,5640
2018-11-23T12:27:59.345Z,5560
2018-11-23T12:29:07.466Z,5368
2018-11-23T12:30:15.570Z,5140
2018-11-23T12:31:23.627Z,4960
2018-11-23T12:32:31.710Z,4832
2018-11-23T12:33:39.661Z,4728
2018-11-23T12:34:47.812Z,4676
2018-11-23T12:35:55.849Z,4704
2018-11-23T12:37:03.913Z,4780
2018-11-23T12:38:11.995Z,4872
2018-11-23T12:39:20.043Z,4952
2018-11-23T12:40:28.014Z,4956
2018-11-23T12:41:36.159Z,4892
2018-11-23T12:42:44.176Z,4820
2018-11-23T12:43:52.199Z,4808
2018-11-23T12:45:00.266Z,4852
2018-11-23T12:46:08.369Z,4904
2018-11-23T12:47:16.414Z,4928
2018-11-23T12:48:24.516Z,4940
2018-11-23T12:49:32.625Z,4924
2018-11-23T12:50:40.661Z,4928
2018-11-23T12:51:48.750Z,4900
2018-11-23T12:52:56.748Z,4864
2018-11-23T12:54:04.854Z,4848
2018-11-23T12:55:12.901Z,4864
2018-11-23T12:56:20.990Z,4924
2018-11-23T12:57:28.937Z,5040
2018-11-23T12:58:37.105Z,5168
2018-11-23T12:59:45.045Z,5224
2018-11-23T13:00:53.214Z,5172
2018-11-23T13:02:01.245Z,5096
2018-11-23T13:03:09.248Z,5008
2018-11-23T13:04:17.408Z,4940
2018-11-23T13:05:25.477Z,4904
2018-11-23T13:06:33.531Z,4900
2018-11-23T13:07:41.554Z,4888
2018-11-23T13:08:49.554Z,4820
2018-11-23T13:09:57.713Z,4708
2018-11-23T13:11:05.780Z,4516
2018-11-23T13:12:13.810Z,4276
2018-11-23T13:13:21.805Z,4036
2018-11-23T13:14:29.970Z,3844
2018-11-23T13:15:38.018Z,3716
2018-11-23T13:16:46.078Z,3664
2018-11-23T13:17:54.083Z,3692
2018-11-23T13:19:02.108Z,3760
2018-11-23T13:20:10.219Z,3836
2018-11-23T13:21:18.283Z,3892
2018-11-23T13:22:26.387Z,3876
2018-11-23T13:23:34.461Z,3776
2018-11-23T13:24:42.504Z,3612
2018-11-23T13:25:50.497Z,3428
2018-11-23T13:26:58.605Z,3264
2018-11-23T13:28:06.699Z,3164
2018-11-23T13:29:16.135Z,3140
2018-11-23T13:30:22.794Z,3184
2018-11-23T13:31:30.779Z,3240
2018-11-23T13:32:38.855Z,3276
2018-11-23T13:33:46.908Z,3276
2018-11-23T13:34:55.046Z,3240
2018-11-23T13:36:03.035Z,3188
2018-11-23T13:37:11.090Z,3132
2018-11-23T13:38:19.141Z,3088
2018-11-23T13:39:27.301Z,3068
2018-11-23T13:40:35.369Z,3048
2018-11-23T13:41:43.301Z,3016
2018-11-23T13:42:51.502Z,3008
2018-11-23T13:43:59.452Z,3000
2018-11-23T13:45:07.583Z,3004
2018-11-23T13:46:15.663Z,3016
2018-11-23T13:47:23.713Z,3032
2018-11-23T13:48:31.786Z,3024
2018-11-23T13:49:39.866Z,2956
2018-11-23T13:50:47.805Z,2840
2018-11-23T13:51:55.988Z,2716
2018-11-23T13:53:04.032Z,2596
2018-11-23T13:54:12.094Z,2476
2018-11-23T13:55:20.252Z,2376
2018-11-23T13:56:28.204Z,2320
2018-11-23T13:57:36.264Z,2304
2018-11-23T13:58:44.311Z,2292
2018-11-23T13:59:52.364Z,2268
2018-11-23T14:01:00.445Z,2232
2018-11-23T14:02:08.591Z,2196
2018-11-23T14:03:16.575Z,2172
2018-11-23T14:04:24.560Z,2148
2018-11-23T14:05:32.675Z,2136
2018-11-23T14:06:40.676Z,2144
2018-11-23T14:07:48.768Z,2136
2018-11-23T14:08:56.870Z,2088
2018-11-23T14:10:04.949Z,2024
2018-11-23T14:11:12.906Z,2004
2018-11-23T14:12:21.003Z,2052
2018-11-23T14:13:29.120Z,2124
2018-11-23T14:14:37.197Z,2132
2018-11-23T14:15:45.224Z,2048
2018-11-23T14:16:53.290Z,1904
2018-11-23T14:18:01.350Z,1760
2018-11-23T14:19:09.438Z,1640
2018-11-23T14:20:17.456Z,1540
2018-11-23T14:21:25.520Z,1460
2018-11-23T14:22:33.576Z,1368
2018-11-23T14:23:41.606Z,1284
2018-11-23T14:24:49.645Z,1220
2018-11-23T14:25:57.793Z,1184
2018-11-23T14:27:05.749Z,1184
2018-11-23T14:28:13.794Z,1200
2018-11-23T14:29:21.950Z,1236
2018-11-23T14:30:30.022Z,1288
2018-11-23T14:31:38.098Z,1320
2018-11-23T14:32:46.044Z,1320
2018-11-23T14:33:54.195Z,1280
2018-11-23T14:35:02.228Z,1192
2018-11-23T14:36:10.332Z,1088
2018-11-23T14:37:18.317Z,992
2018-11-23T14:38:26.441Z,928
2018-11-23T14:39:34.512Z,880
2018-11-23T14:40:42.476Z,832
2018-11-23T14:41:50.740Z,784
2018-11-23T14:42:58.699Z,752
2018-11-23T14:44:06.862Z,752
2018-11-23T14:45:14.788Z,780
2018-11-23T14:46:22.880Z,828
2018-11-23T14:47:30.870Z,876
2018-11-23T14:48:39.019Z,892
2018-11-23T14:49:47.027Z,868
2018-11-23T14:50:55.005Z,816
2018-11-23T14:52:03.161Z,772
2018-11-23T14:53:11.220Z,748
2018-11-23T14:54:19.195Z,752
2018-11-23T14:55:27.249Z,776
2018-11-23T14:56:35.382Z,792
2018-11-23T14:57:43.466Z,780
2018-11-23T14:58:51.514Z,732
2018-11-23T14:59:59.501Z,660
2018-11-23T15:01:07.559Z,592
2018-11-23T15:02:15.603Z,544
2018-11-23T15:03:23.642Z,508
2018-11-23T15:04:31.711Z,476
2018-11-23T15:05:39.795Z,444
2018-11-23T15:06:47.846Z,404
2018-11-23T15:07:55.906Z,360
2018-11-23T15:09:03.935Z,324
2018-11-23T15:10:12.010Z,296
2018-11-23T15:11:20.070Z,284
2018-11-23T15:12:28.135Z,280
2018-11-23T15:13:36.197Z,288
2018-11-23T15:14:44.225Z,292
2018-11-23T15:15:52.307Z,292
2018-11-23T15:17:00.352Z,284
2018-11-23T15:18:08.431Z,268
2018-11-23T15:19:16.495Z,244
2018-11-23T15:20:24.541Z,224
2018-11-23T15:21:32.615Z,208
2018-11-23T15:22:40.665Z,192
2018-11-23T15:23:48.736Z,184
2018-11-23T15:24:56.795Z,180
2018-11-23T15:26:04.838Z,172
2018-11-23T15:27:12.919Z,164
2018-11-23T15:28:20.947Z,144
2018-11-23T15:29:29.037Z,128
2018-11-23T15:30:37.096Z,116
2018-11-23T15:31:45.137Z,108
2018-11-23T15:32:53.192Z,96
2018-11-23T15:34:01.259Z,88
2018-11-23T15:35:09.332Z,84
2018-11-23T15:36:17.372Z,76
2018-11-23T15:37:25.421Z,72
2018-11-23T15:38:33.465Z,64
2018-11-23T15:39:41.566Z,56
2018-11-23T15:40:49.621Z,52
2018-11-23T15:41:57.685Z,48
2018-11-23T15:43:05.741Z,40
2018-11-23T15:44:13.767Z,40
2018-11-23T15:45:21.856Z,32
2018-11-23T15:46:29.931Z,28
2018-11-23T15:47:37.973Z,24
2018-11-23T15:48:46.035Z,20